AAL2923 KCLT-KSRQ
Flight info
| Callsign | AAL2923 |
|---|---|
| Flight time | 1h 18m |
| Altitude | 36000 |
| Route | ICONS5 NOOKS RIELE Q103 PUPYY KYYUU LUBBR4 |
| Aircraft | A320/M-SDE3FGHIRWY/LB1 |
Departure
| Time | 2026-05-04 21:25 |
|---|---|
| Airport | Charlotte Douglas International Airport (KCLT) |
Arrival
| Time | 2026-05-04 22:44 |
|---|---|
| Airport | Sarasota Bradenton International Airport (KSRQ) |
| Time | Latitude | Longitude | Altitude | Speed | Heading |
|---|---|---|---|---|---|
| 2026-05-04 21:01 | 35.21972 | -80.94231 | 732 ft | 0 kts | 282° |
| 2026-05-04 21:14 | 35.21968 | -80.94209 | 732 ft | 4 kts | 282° |
| 2026-05-04 21:15 | 35.21962 | -80.94176 | 730 ft | 4 kts | 282° |
| 2026-05-04 21:15 | 35.21957 | -80.94144 | 731 ft | 4 kts | 282° |
| 2026-05-04 21:15 | 35.21953 | -80.94123 | 731 ft | 0 kts | 282° |
| 2026-05-04 21:18 | 35.21951 | -80.94126 | 731 ft | 1 kts | 252° |
| 2026-05-04 21:18 | 35.21945 | -80.94126 | 730 ft | 1 kts | 186° |
| 2026-05-04 21:18 | 35.21925 | -80.94111 | 732 ft | 8 kts | 152° |
| 2026-05-04 21:18 | 35.21875 | -80.94061 | 732 ft | 10 kts | 138° |
| 2026-05-04 21:19 | 35.21852 | -80.94035 | 732 ft | 0 kts | 138° |
| 2026-05-04 21:19 | 35.21850 | -80.94033 | 732 ft | 2 kts | 138° |
| 2026-05-04 21:20 | 35.21831 | -80.94013 | 732 ft | 0 kts | 139° |
| 2026-05-04 21:20 | 35.21817 | -80.93996 | 732 ft | 6 kts | 132° |
| 2026-05-04 21:20 | 35.21817 | -80.93931 | 732 ft | 11 kts | 62° |
| 2026-05-04 21:20 | 35.21878 | -80.93844 | 731 ft | 16 kts | 47° |
| 2026-05-04 21:21 | 35.21954 | -80.93739 | 731 ft | 14 kts | 48° |
| 2026-05-04 21:21 | 35.22047 | -80.93717 | 733 ft | 15 kts | 358° |
| 2026-05-04 21:21 | 35.22161 | -80.93726 | 733 ft | 17 kts | 356° |
| 2026-05-04 21:21 | 35.22270 | -80.93736 | 733 ft | 14 kts | 356° |
| 2026-05-04 21:22 | 35.22365 | -80.93743 | 733 ft | 4 kts | 356° |
| 2026-05-04 21:22 | 35.22390 | -80.93745 | 733 ft | 5 kts | 355° |
| 2026-05-04 21:22 | 35.22433 | -80.93748 | 733 ft | 7 kts | 358° |
| 2026-05-04 21:22 | 35.22461 | -80.93749 | 734 ft | 1 kts | 358° |
| 2026-05-04 21:23 | 35.22465 | -80.93749 | 734 ft | 1 kts | 358° |
| 2026-05-04 21:23 | 35.22469 | -80.93749 | 734 ft | 1 kts | 358° |
| 2026-05-04 21:23 | 35.22486 | -80.93743 | 734 ft | 3 kts | 28° |
| 2026-05-04 21:23 | 35.22502 | -80.93714 | 734 ft | 5 kts | 68° |
| 2026-05-04 21:24 | 35.22505 | -80.93671 | 735 ft | 5 kts | 91° |
| 2026-05-04 21:24 | 35.22488 | -80.93628 | 736 ft | 6 kts | 139° |
| 2026-05-04 21:24 | 35.22448 | -80.93616 | 736 ft | 0 kts | 175° |
| 2026-05-04 21:24 | 35.22442 | -80.93616 | 736 ft | 12 kts | 175° |
| 2026-05-04 21:25 | 35.22100 | -80.93588 | 736 ft | 83 kts | 176° |
| 2026-05-04 21:25 | 35.21342 | -80.93523 | 734 ft | 136 kts | 176° |
| 2026-05-04 21:25 | 35.20294 | -80.93453 | 1019 ft | 150 kts | 175° |
| 2026-05-04 21:25 | 35.19259 | -80.93357 | 1678 ft | 149 kts | 175° |
| 2026-05-04 21:26 | 35.18227 | -80.93234 | 2336 ft | 149 kts | 179° |
| 2026-05-04 21:26 | 35.17150 | -80.93107 | 2812 ft | 165 kts | 176° |
| 2026-05-04 21:26 | 35.15941 | -80.92965 | 3080 ft | 186 kts | 176° |
| 2026-05-04 21:26 | 35.14578 | -80.92811 | 3379 ft | 207 kts | 178° |
| 2026-05-04 21:27 | 35.13073 | -80.92828 | 3687 ft | 228 kts | 184° |
| 2026-05-04 21:27 | 35.11430 | -80.92959 | 4133 ft | 250 kts | 186° |
| 2026-05-04 21:27 | 35.09660 | -80.93131 | 4911 ft | 258 kts | 186° |
| 2026-05-04 21:27 | 35.07849 | -80.93308 | 5771 ft | 264 kts | 187° |
| 2026-05-04 21:28 | 35.05998 | -80.93483 | 6615 ft | 270 kts | 187° |
| 2026-05-04 21:28 | 35.04100 | -80.93658 | 7416 ft | 276 kts | 187° |
| 2026-05-04 21:28 | 35.02175 | -80.93829 | 8254 ft | 280 kts | 187° |
| 2026-05-04 21:28 | 35.00223 | -80.93998 | 9091 ft | 283 kts | 187° |
| 2026-05-04 21:29 | 34.98243 | -80.94169 | 9902 ft | 288 kts | 187° |
| 2026-05-04 21:29 | 34.96203 | -80.94348 | 10375 ft | 304 kts | 187° |
| 2026-05-04 21:29 | 34.94013 | -80.94544 | 10589 ft | 327 kts | 187° |
| 2026-05-04 21:29 | 34.91708 | -80.94751 | 10939 ft | 343 kts | 187° |
| 2026-05-04 21:30 | 34.89306 | -80.94960 | 11561 ft | 349 kts | 186° |
| 2026-05-04 21:30 | 34.86871 | -80.95161 | 12257 ft | 353 kts | 187° |
| 2026-05-04 21:30 | 34.84406 | -80.95363 | 12927 ft | 357 kts | 187° |
| 2026-05-04 21:30 | 34.81914 | -80.95569 | 13615 ft | 361 kts | 187° |
| 2026-05-04 21:31 | 34.76855 | -80.96003 | 14812 ft | 368 kts | 187° |
| 2026-05-04 21:31 | 34.74283 | -80.96223 | 15388 ft | 372 kts | 187° |
| 2026-05-04 21:31 | 34.71684 | -80.96443 | 15967 ft | 376 kts | 187° |
| 2026-05-04 21:32 | 34.69058 | -80.96664 | 16530 ft | 380 kts | 187° |
| 2026-05-04 21:32 | 34.66408 | -80.96886 | 17104 ft | 384 kts | 187° |
| 2026-05-04 21:32 | 34.63759 | -80.97108 | 17660 ft | 389 kts | 187° |
| 2026-05-04 21:32 | 34.61048 | -80.97340 | 18250 ft | 393 kts | 187° |
| 2026-05-04 21:33 | 34.58309 | -80.97587 | 18784 ft | 396 kts | 188° |
| 2026-05-04 21:33 | 34.55549 | -80.97848 | 19345 ft | 400 kts | 188° |
| 2026-05-04 21:33 | 34.52768 | -80.98116 | 19914 ft | 403 kts | 188° |
| 2026-05-04 21:33 | 34.49964 | -80.98386 | 20479 ft | 406 kts | 189° |
| 2026-05-04 21:34 | 34.47137 | -80.98657 | 21038 ft | 409 kts | 189° |
| 2026-05-04 21:34 | 34.44287 | -80.98927 | 21572 ft | 412 kts | 189° |
| 2026-05-04 21:34 | 34.41418 | -80.99198 | 22075 ft | 415 kts | 189° |
| 2026-05-04 21:34 | 34.38528 | -80.99473 | 22568 ft | 418 kts | 189° |
| 2026-05-04 21:35 | 34.35657 | -80.99740 | 23061 ft | 421 kts | 189° |
| 2026-05-04 21:35 | 34.32725 | -81.00010 | 23547 ft | 424 kts | 190° |
| 2026-05-04 21:35 | 34.29777 | -81.00284 | 23959 ft | 427 kts | 190° |
| 2026-05-04 21:35 | 34.26810 | -81.00560 | 24364 ft | 429 kts | 190° |
| 2026-05-04 21:36 | 34.23828 | -81.00840 | 24775 ft | 431 kts | 190° |
| 2026-05-04 21:36 | 34.20833 | -81.01122 | 25172 ft | 433 kts | 190° |
| 2026-05-04 21:36 | 34.17829 | -81.01403 | 25567 ft | 434 kts | 190° |
| 2026-05-04 21:36 | 34.14809 | -81.01688 | 25956 ft | 436 kts | 190° |
| 2026-05-04 21:37 | 34.11781 | -81.01972 | 26334 ft | 437 kts | 190° |
| 2026-05-04 21:37 | 34.08742 | -81.02256 | 26733 ft | 439 kts | 190° |
| 2026-05-04 21:37 | 34.05691 | -81.02537 | 27122 ft | 440 kts | 190° |
| 2026-05-04 21:37 | 34.02672 | -81.02813 | 27488 ft | 442 kts | 190° |
| 2026-05-04 21:38 | 33.99597 | -81.03097 | 27865 ft | 444 kts | 191° |
| 2026-05-04 21:38 | 33.96562 | -81.03662 | 28239 ft | 440 kts | 198° |
| 2026-05-04 21:38 | 33.93573 | -81.04473 | 28603 ft | 441 kts | 199° |
| 2026-05-04 21:38 | 33.90572 | -81.05288 | 28950 ft | 443 kts | 198° |
| 2026-05-04 21:39 | 33.87561 | -81.06102 | 29267 ft | 445 kts | 199° |
| 2026-05-04 21:39 | 33.84532 | -81.06915 | 29596 ft | 447 kts | 198° |
| 2026-05-04 21:39 | 33.81487 | -81.07729 | 29926 ft | 449 kts | 198° |
| 2026-05-04 21:39 | 33.78428 | -81.08547 | 30225 ft | 451 kts | 198° |
| 2026-05-04 21:40 | 33.75401 | -81.09357 | 30492 ft | 452 kts | 198° |
| 2026-05-04 21:40 | 33.72330 | -81.10182 | 30814 ft | 452 kts | 198° |
| 2026-05-04 21:40 | 33.69270 | -81.11006 | 31203 ft | 450 kts | 199° |
| 2026-05-04 21:40 | 33.66223 | -81.11827 | 31587 ft | 448 kts | 199° |
| 2026-05-04 21:41 | 33.63188 | -81.12645 | 31951 ft | 446 kts | 199° |
| 2026-05-04 21:41 | 33.60165 | -81.13457 | 32348 ft | 444 kts | 199° |
| 2026-05-04 21:41 | 33.57149 | -81.14261 | 32740 ft | 443 kts | 199° |
| 2026-05-04 21:41 | 33.54147 | -81.15061 | 33132 ft | 441 kts | 199° |
| 2026-05-04 21:42 | 33.51196 | -81.15848 | 33529 ft | 440 kts | 199° |
| 2026-05-04 21:42 | 33.48213 | -81.16640 | 33936 ft | 438 kts | 199° |
| 2026-05-04 21:42 | 33.45242 | -81.17431 | 34301 ft | 437 kts | 199° |
| 2026-05-04 21:42 | 33.42282 | -81.18224 | 34639 ft | 436 kts | 199° |
| 2026-05-04 21:43 | 33.39324 | -81.19017 | 34970 ft | 435 kts | 199° |
| 2026-05-04 21:43 | 33.36369 | -81.19807 | 35256 ft | 435 kts | 199° |
| 2026-05-04 21:43 | 33.33416 | -81.20596 | 35553 ft | 435 kts | 199° |
| 2026-05-04 21:43 | 33.30465 | -81.21379 | 35843 ft | 434 kts | 200° |
| 2026-05-04 21:44 | 33.27513 | -81.22161 | 36027 ft | 435 kts | 200° |
| 2026-05-04 21:44 | 33.21644 | -81.23713 | 36059 ft | 435 kts | 200° |
| 2026-05-04 21:45 | 33.15743 | -81.25275 | 36064 ft | 434 kts | 200° |
| 2026-05-04 21:45 | 33.09841 | -81.26839 | 36070 ft | 435 kts | 200° |
| 2026-05-04 21:46 | 33.03934 | -81.28395 | 36051 ft | 435 kts | 199° |
| 2026-05-04 21:46 | 32.98058 | -81.29944 | 36065 ft | 436 kts | 199° |
| 2026-05-04 21:47 | 32.92132 | -81.31508 | 36057 ft | 436 kts | 199° |
| 2026-05-04 21:47 | 32.86204 | -81.33068 | 36068 ft | 437 kts | 199° |
| 2026-05-04 21:48 | 32.81270 | -81.34367 | 36051 ft | 437 kts | 199° |
| 2026-05-04 21:48 | 32.75328 | -81.35932 | 36059 ft | 437 kts | 199° |
| 2026-05-04 21:49 | 32.68418 | -81.37737 | 36073 ft | 438 kts | 199° |
| 2026-05-04 21:49 | 32.63472 | -81.39022 | 36079 ft | 438 kts | 199° |
| 2026-05-04 21:50 | 32.57600 | -81.40806 | 36052 ft | 434 kts | 204° |
| 2026-05-04 21:50 | 32.51848 | -81.42933 | 36076 ft | 432 kts | 205° |
| 2026-05-04 21:51 | 32.46108 | -81.45086 | 36079 ft | 433 kts | 204° |
| 2026-05-04 21:51 | 32.40333 | -81.47155 | 36095 ft | 434 kts | 204° |
| 2026-05-04 21:52 | 32.34581 | -81.49165 | 36103 ft | 434 kts | 204° |
| 2026-05-04 21:52 | 32.28797 | -81.51196 | 36087 ft | 433 kts | 204° |
| 2026-05-04 21:53 | 32.23027 | -81.53236 | 36099 ft | 433 kts | 204° |
| 2026-05-04 21:53 | 32.17258 | -81.55262 | 36099 ft | 432 kts | 204° |
| 2026-05-04 21:54 | 32.11537 | -81.57270 | 36099 ft | 432 kts | 204° |
| 2026-05-04 21:54 | 32.05780 | -81.59292 | 36059 ft | 431 kts | 205° |
| 2026-05-04 21:55 | 32.00032 | -81.61298 | 36085 ft | 430 kts | 205° |
| 2026-05-04 21:55 | 31.94297 | -81.63308 | 36099 ft | 430 kts | 205° |
| 2026-05-04 21:56 | 31.88604 | -81.65303 | 36109 ft | 430 kts | 205° |
| 2026-05-04 21:56 | 31.82869 | -81.67305 | 36104 ft | 430 kts | 204° |
| 2026-05-04 21:57 | 31.77124 | -81.69297 | 36059 ft | 430 kts | 205° |
| 2026-05-04 21:57 | 31.71382 | -81.71295 | 36078 ft | 430 kts | 205° |
| 2026-05-04 21:58 | 31.65643 | -81.73287 | 36088 ft | 430 kts | 205° |
| 2026-05-04 21:58 | 31.59941 | -81.75269 | 36108 ft | 430 kts | 205° |
| 2026-05-04 21:59 | 31.54206 | -81.77270 | 36114 ft | 430 kts | 205° |
| 2026-05-04 21:59 | 31.48463 | -81.79256 | 36089 ft | 430 kts | 205° |
| 2026-05-04 22:00 | 31.42720 | -81.81241 | 36098 ft | 430 kts | 205° |
| 2026-05-04 22:00 | 31.37208 | -81.83711 | 36103 ft | 422 kts | 212° |
| 2026-05-04 22:01 | 31.31838 | -81.86381 | 36105 ft | 422 kts | 212° |
| 2026-05-04 22:01 | 31.26430 | -81.89060 | 36038 ft | 422 kts | 211° |
| 2026-05-04 22:02 | 31.21019 | -81.91731 | 36049 ft | 422 kts | 211° |
| 2026-05-04 22:02 | 31.15606 | -81.94401 | 36071 ft | 422 kts | 211° |
| 2026-05-04 22:03 | 31.10233 | -81.97057 | 36075 ft | 422 kts | 211° |
| 2026-05-04 22:03 | 31.04815 | -81.99724 | 36109 ft | 423 kts | 211° |
| 2026-05-04 22:04 | 30.99624 | -82.02284 | 36070 ft | 427 kts | 211° |
| 2026-05-04 22:04 | 30.94091 | -82.05022 | 36153 ft | 437 kts | 211° |
| 2026-05-04 22:05 | 30.88568 | -82.07718 | 36155 ft | 426 kts | 211° |
| 2026-05-04 22:05 | 30.83118 | -82.10379 | 36188 ft | 424 kts | 211° |
| 2026-05-04 22:06 | 30.77724 | -82.13026 | 36177 ft | 423 kts | 211° |
| 2026-05-04 22:06 | 30.72296 | -82.15681 | 36171 ft | 423 kts | 211° |
| 2026-05-04 22:07 | 30.66856 | -82.18339 | 36172 ft | 425 kts | 211° |
| 2026-05-04 22:07 | 30.61117 | -82.20198 | 36184 ft | 443 kts | 194° |
| 2026-05-04 22:08 | 30.54965 | -82.20888 | 36185 ft | 444 kts | 194° |
| 2026-05-04 22:08 | 30.48808 | -82.21571 | 36193 ft | 445 kts | 194° |
| 2026-05-04 22:09 | 30.42651 | -82.22270 | 36192 ft | 445 kts | 194° |
| 2026-05-04 22:09 | 30.36491 | -82.22967 | 36185 ft | 445 kts | 194° |
| 2026-05-04 22:10 | 30.30377 | -82.23654 | 36187 ft | 445 kts | 194° |
| 2026-05-04 22:10 | 30.24218 | -82.24346 | 36185 ft | 444 kts | 194° |
| 2026-05-04 22:11 | 30.18066 | -82.25041 | 36177 ft | 444 kts | 194° |
| 2026-05-04 22:11 | 30.11781 | -82.24793 | 36128 ft | 458 kts | 182° |
| 2026-05-04 22:12 | 30.05438 | -82.23969 | 36132 ft | 459 kts | 182° |
| 2026-05-04 22:12 | 29.99131 | -82.23154 | 36131 ft | 459 kts | 182° |
| 2026-05-04 22:13 | 29.92775 | -82.22335 | 36111 ft | 460 kts | 182° |
| 2026-05-04 22:13 | 29.86419 | -82.21511 | 36062 ft | 460 kts | 181° |
| 2026-05-04 22:14 | 29.80058 | -82.20686 | 35960 ft | 461 kts | 181° |
| 2026-05-04 22:14 | 29.76875 | -82.20278 | 35706 ft | 460 kts | 181° |
| 2026-05-04 22:14 | 29.73734 | -82.19880 | 35467 ft | 460 kts | 181° |
| 2026-05-04 22:14 | 29.70550 | -82.19477 | 35231 ft | 461 kts | 181° |
| 2026-05-04 22:15 | 29.67358 | -82.19073 | 34990 ft | 461 kts | 181° |
| 2026-05-04 22:15 | 29.64169 | -82.18668 | 34657 ft | 462 kts | 181° |
| 2026-05-04 22:15 | 29.60957 | -82.18258 | 33733 ft | 467 kts | 181° |
| 2026-05-04 22:15 | 29.57716 | -82.17843 | 32816 ft | 469 kts | 181° |
| 2026-05-04 22:16 | 29.54464 | -82.17427 | 31941 ft | 471 kts | 180° |
| 2026-05-04 22:16 | 29.51197 | -82.17013 | 31062 ft | 474 kts | 180° |
| 2026-05-04 22:16 | 29.47905 | -82.16596 | 30005 ft | 478 kts | 180° |
| 2026-05-04 22:16 | 29.44635 | -82.16184 | 28920 ft | 480 kts | 180° |
| 2026-05-04 22:17 | 29.41328 | -82.15762 | 28284 ft | 473 kts | 180° |
| 2026-05-04 22:17 | 29.38080 | -82.15345 | 27620 ft | 467 kts | 180° |
| 2026-05-04 22:17 | 29.34868 | -82.14937 | 26952 ft | 462 kts | 180° |
| 2026-05-04 22:17 | 29.31692 | -82.14539 | 26291 ft | 457 kts | 180° |
| 2026-05-04 22:18 | 29.28548 | -82.14145 | 25628 ft | 452 kts | 180° |
| 2026-05-04 22:18 | 29.25432 | -82.13757 | 24992 ft | 448 kts | 180° |
| 2026-05-04 22:18 | 29.22343 | -82.13374 | 24348 ft | 445 kts | 180° |
| 2026-05-04 22:18 | 29.19276 | -82.12993 | 23701 ft | 443 kts | 179° |
| 2026-05-04 22:19 | 29.16266 | -82.12709 | 22990 ft | 435 kts | 184° |
| 2026-05-04 22:19 | 29.13261 | -82.12653 | 22390 ft | 429 kts | 184° |
| 2026-05-04 22:19 | 29.10299 | -82.12590 | 21783 ft | 424 kts | 184° |
| 2026-05-04 22:19 | 29.07364 | -82.12523 | 21211 ft | 419 kts | 184° |
| 2026-05-04 22:20 | 29.04461 | -82.12458 | 20640 ft | 415 kts | 184° |
| 2026-05-04 22:20 | 29.01584 | -82.12398 | 20084 ft | 412 kts | 184° |
| 2026-05-04 22:20 | 28.98727 | -82.12342 | 19561 ft | 409 kts | 184° |
| 2026-05-04 22:20 | 28.95889 | -82.12286 | 19032 ft | 407 kts | 183° |
| 2026-05-04 22:21 | 28.93064 | -82.12230 | 18490 ft | 405 kts | 183° |
| 2026-05-04 22:21 | 28.90288 | -82.12176 | 17904 ft | 404 kts | 183° |
| 2026-05-04 22:21 | 28.87491 | -82.12119 | 17337 ft | 400 kts | 182° |
| 2026-05-04 22:21 | 28.84718 | -82.12060 | 16781 ft | 397 kts | 182° |
| 2026-05-04 22:22 | 28.81969 | -82.12000 | 16194 ft | 394 kts | 182° |
| 2026-05-04 22:22 | 28.79238 | -82.11941 | 15605 ft | 391 kts | 182° |
| 2026-05-04 22:22 | 28.76527 | -82.11884 | 15018 ft | 389 kts | 181° |
| 2026-05-04 22:22 | 28.73829 | -82.11828 | 14423 ft | 386 kts | 181° |
| 2026-05-04 22:23 | 28.71149 | -82.11774 | 13808 ft | 384 kts | 181° |
| 2026-05-04 22:23 | 28.68524 | -82.11720 | 13226 ft | 380 kts | 180° |
| 2026-05-04 22:23 | 28.65922 | -82.11419 | 13035 ft | 374 kts | 175° |
| 2026-05-04 22:23 | 28.63345 | -82.11041 | 13034 ft | 373 kts | 175° |
| 2026-05-04 22:24 | 28.60768 | -82.10671 | 13044 ft | 374 kts | 175° |
| 2026-05-04 22:24 | 28.58187 | -82.10303 | 13043 ft | 374 kts | 175° |
| 2026-05-04 22:24 | 28.55609 | -82.09939 | 13045 ft | 373 kts | 175° |
| 2026-05-04 22:24 | 28.53029 | -82.09578 | 13048 ft | 373 kts | 175° |
| 2026-05-04 22:25 | 28.50452 | -82.09214 | 13048 ft | 373 kts | 175° |
| 2026-05-04 22:25 | 28.47882 | -82.08757 | 13050 ft | 375 kts | 169° |
| 2026-05-04 22:25 | 28.45340 | -82.08107 | 13048 ft | 375 kts | 169° |
| 2026-05-04 22:25 | 28.42827 | -82.07462 | 13041 ft | 375 kts | 169° |
| 2026-05-04 22:26 | 28.40288 | -82.06810 | 13051 ft | 374 kts | 169° |
| 2026-05-04 22:26 | 28.37746 | -82.06156 | 13050 ft | 374 kts | 169° |
| 2026-05-04 22:26 | 28.35204 | -82.05528 | 13051 ft | 374 kts | 172° |
| 2026-05-04 22:26 | 28.32643 | -82.05035 | 13052 ft | 373 kts | 173° |
| 2026-05-04 22:27 | 28.30080 | -82.04572 | 13052 ft | 373 kts | 173° |
| 2026-05-04 22:27 | 28.27514 | -82.04118 | 13053 ft | 373 kts | 174° |
| 2026-05-04 22:27 | 28.24949 | -82.03672 | 13053 ft | 373 kts | 174° |
| 2026-05-04 22:27 | 28.22384 | -82.03231 | 13053 ft | 373 kts | 174° |
| 2026-05-04 22:28 | 28.19817 | -82.02792 | 13054 ft | 373 kts | 174° |
| 2026-05-04 22:28 | 28.17282 | -82.02382 | 12962 ft | 373 kts | 176° |
| 2026-05-04 22:28 | 28.14710 | -82.02281 | 12705 ft | 368 kts | 185° |
| 2026-05-04 22:28 | 28.12182 | -82.02568 | 12434 ft | 363 kts | 192° |
| 2026-05-04 22:29 | 28.09740 | -82.03223 | 12181 ft | 359 kts | 200° |
| 2026-05-04 22:29 | 28.07424 | -82.04220 | 11937 ft | 354 kts | 207° |
| 2026-05-04 22:29 | 28.05246 | -82.05500 | 11699 ft | 352 kts | 211° |
| 2026-05-04 22:29 | 28.03102 | -82.06817 | 11449 ft | 350 kts | 211° |
| 2026-05-04 22:30 | 28.00965 | -82.08125 | 11204 ft | 348 kts | 211° |
| 2026-05-04 22:30 | 27.98839 | -82.09422 | 10966 ft | 346 kts | 211° |
| 2026-05-04 22:30 | 27.96724 | -82.10710 | 10727 ft | 344 kts | 211° |
| 2026-05-04 22:30 | 27.94620 | -82.11989 | 10491 ft | 343 kts | 211° |
| 2026-05-04 22:31 | 27.92556 | -82.13245 | 10263 ft | 341 kts | 211° |
| 2026-05-04 22:31 | 27.90475 | -82.14512 | 10029 ft | 339 kts | 211° |
| 2026-05-04 22:31 | 27.88440 | -82.15750 | 9877 ft | 324 kts | 211° |
| 2026-05-04 22:31 | 27.86497 | -82.16929 | 9744 ft | 310 kts | 211° |
| 2026-05-04 22:32 | 27.84638 | -82.18059 | 9610 ft | 298 kts | 210° |
| 2026-05-04 22:32 | 27.82848 | -82.19147 | 9465 ft | 287 kts | 210° |
| 2026-05-04 22:32 | 27.81121 | -82.20198 | 9340 ft | 279 kts | 210° |
| 2026-05-04 22:32 | 27.79418 | -82.21235 | 9210 ft | 278 kts | 210° |
| 2026-05-04 22:33 | 27.77737 | -82.22303 | 9083 ft | 277 kts | 214° |
| 2026-05-04 22:33 | 27.76213 | -82.23569 | 9005 ft | 275 kts | 221° |
| 2026-05-04 22:33 | 27.74773 | -82.24998 | 8900 ft | 275 kts | 222° |
| 2026-05-04 22:33 | 27.73333 | -82.26424 | 8774 ft | 275 kts | 222° |
| 2026-05-04 22:34 | 27.71890 | -82.27847 | 8648 ft | 275 kts | 222° |
| 2026-05-04 22:34 | 27.70447 | -82.29266 | 8526 ft | 275 kts | 221° |
| 2026-05-04 22:34 | 27.69007 | -82.30679 | 8388 ft | 274 kts | 221° |
| 2026-05-04 22:34 | 27.67568 | -82.32089 | 8273 ft | 274 kts | 221° |
| 2026-05-04 22:35 | 27.66132 | -82.33501 | 8148 ft | 274 kts | 221° |
| 2026-05-04 22:35 | 27.64696 | -82.34915 | 8025 ft | 274 kts | 221° |
| 2026-05-04 22:35 | 27.63252 | -82.36261 | 7902 ft | 273 kts | 215° |
| 2026-05-04 22:35 | 27.61578 | -82.37283 | 7679 ft | 275 kts | 202° |
| 2026-05-04 22:36 | 27.59738 | -82.37838 | 7370 ft | 275 kts | 188° |
| 2026-05-04 22:36 | 27.57830 | -82.37891 | 7033 ft | 275 kts | 175° |
| 2026-05-04 22:36 | 27.55936 | -82.37548 | 6699 ft | 275 kts | 170° |
| 2026-05-04 22:36 | 27.54051 | -82.37180 | 6353 ft | 275 kts | 170° |
| 2026-05-04 22:37 | 27.52169 | -82.36817 | 6010 ft | 274 kts | 170° |
| 2026-05-04 22:37 | 27.50315 | -82.36462 | 5665 ft | 274 kts | 169° |
| 2026-05-04 22:37 | 27.48450 | -82.36106 | 5403 ft | 273 kts | 169° |
| 2026-05-04 22:37 | 27.46580 | -82.35749 | 5091 ft | 271 kts | 169° |
| 2026-05-04 22:38 | 27.44737 | -82.35398 | 5000 ft | 268 kts | 169° |
| 2026-05-04 22:38 | 27.42888 | -82.35047 | 4987 ft | 270 kts | 169° |
| 2026-05-04 22:38 | 27.41046 | -82.34698 | 4858 ft | 265 kts | 169° |
| 2026-05-04 22:38 | 27.39261 | -82.34360 | 4735 ft | 256 kts | 168° |
| 2026-05-04 22:39 | 27.37522 | -82.34031 | 4412 ft | 252 kts | 169° |
| 2026-05-04 22:39 | 27.35809 | -82.34099 | 4028 ft | 246 kts | 197° |
| 2026-05-04 22:39 | 27.34403 | -82.35101 | 3686 ft | 239 kts | 226° |
| 2026-05-04 22:39 | 27.33390 | -82.36550 | 3320 ft | 233 kts | 232° |
| 2026-05-04 22:40 | 27.32478 | -82.38017 | 2932 ft | 230 kts | 233° |
| 2026-05-04 22:40 | 27.31585 | -82.39479 | 2590 ft | 224 kts | 233° |
| 2026-05-04 22:40 | 27.30793 | -82.40962 | 2239 ft | 219 kts | 252° |
| 2026-05-04 22:40 | 27.30734 | -82.42611 | 2006 ft | 208 kts | 286° |
| 2026-05-04 22:41 | 27.31169 | -82.44057 | 2025 ft | 182 kts | 292° |
| 2026-05-04 22:41 | 27.31617 | -82.45285 | 2010 ft | 160 kts | 294° |
| 2026-05-04 22:41 | 27.32035 | -82.46421 | 1995 ft | 155 kts | 293° |
| 2026-05-04 22:41 | 27.32497 | -82.47496 | 1901 ft | 153 kts | 311° |
| 2026-05-04 22:42 | 27.33261 | -82.48291 | 1649 ft | 150 kts | 316° |
| 2026-05-04 22:42 | 27.33976 | -82.49123 | 1408 ft | 147 kts | 315° |
| 2026-05-04 22:42 | 27.34687 | -82.49947 | 1201 ft | 146 kts | 317° |
| 2026-05-04 22:42 | 27.35385 | -82.50754 | 1031 ft | 145 kts | 317° |
| 2026-05-04 22:43 | 27.36092 | -82.51575 | 832 ft | 146 kts | 320° |
| 2026-05-04 22:43 | 27.36785 | -82.52403 | 642 ft | 145 kts | 318° |
| 2026-05-04 22:43 | 27.37495 | -82.53181 | 425 ft | 141 kts | 317° |
| 2026-05-04 22:43 | 27.38195 | -82.53974 | 259 ft | 143 kts | 318° |
| 2026-05-04 22:44 | 27.38892 | -82.54764 | 66 ft | 142 kts | 316° |
| 2026-05-04 22:44 | 27.39536 | -82.55499 | 30 ft | 107 kts | 314° |
| 2026-05-04 22:44 | 27.39843 | -82.55854 | 29 ft | 20 kts | 315° |
| 2026-05-04 22:44 | 27.39927 | -82.55950 | 28 ft | 10 kts | 314° |
| 2026-05-04 22:45 | 27.39954 | -82.56021 | 29 ft | 11 kts | 253° |
| 2026-05-04 22:45 | 27.39810 | -82.55993 | 30 ft | 14 kts | 135° |
| 2026-05-04 22:45 | 27.39734 | -82.55907 | 31 ft | 17 kts | 135° |
| 2026-05-04 22:46 | 27.39647 | -82.55807 | 30 ft | 19 kts | 134° |
| 2026-05-04 22:46 | 27.39547 | -82.55691 | 30 ft | 22 kts | 134° |
| 2026-05-04 22:46 | 27.39433 | -82.55563 | 31 ft | 23 kts | 134° |
| 2026-05-04 22:46 | 27.39317 | -82.55429 | 30 ft | 25 kts | 135° |
| 2026-05-04 22:47 | 27.39230 | -82.55330 | 30 ft | 17 kts | 134° |
| 2026-05-04 22:47 | 27.39165 | -82.55259 | 30 ft | 9 kts | 146° |
| 2026-05-04 22:47 | 27.39102 | -82.55270 | 31 ft | 11 kts | 201° |
| 2026-05-04 22:47 | 27.39023 | -82.55264 | 31 ft | 13 kts | 166° |
| 2026-05-04 22:48 | 27.38947 | -82.55249 | 31 ft | 9 kts | 172° |
| 2026-05-04 22:48 | 27.38884 | -82.55241 | 31 ft | 9 kts | 190° |
| 2026-05-04 22:48 | 27.38876 | -82.55283 | 31 ft | 5 kts | 282° |
| 2026-05-04 22:48 | 27.38880 | -82.55312 | 31 ft | 0 kts | 278° |